createdAt,value
2023-02-18T00:01:10.922Z,52.00
2023-02-18T00:03:37.811Z,54.50
2023-02-18T00:06:16.221Z,56.60
2023-02-18T00:08:44.466Z,58.50
2023-02-18T00:11:12.036Z,61.20
2023-02-18T00:13:39.838Z,63.90
2023-02-18T00:16:13.093Z,66.90
2023-02-18T00:18:40.068Z,70.40
2023-02-18T00:21:08.601Z,93.80
2023-02-18T00:23:35.684Z,74.00
2023-02-18T00:26:05.479Z,77.00
2023-02-18T00:28:32.523Z,80.80
2023-02-18T00:31:00.609Z,83.60
2023-02-18T00:33:27.293Z,86.00
2023-02-18T00:36:02.185Z,87.30
2023-02-18T00:38:28.857Z,91.40
2023-02-18T00:40:55.579Z,92.70
2023-02-18T00:43:22.259Z,94.80
2023-02-18T00:45:48.931Z,97.40
2023-02-18T00:48:15.597Z,98.50
2023-02-18T00:50:42.291Z,99.30
2023-02-18T00:53:09.004Z,99.70
2023-02-18T00:55:42.690Z,99.80
2023-02-18T00:58:10.311Z,99.90
2023-02-18T01:00:37.704Z,99.90
2023-02-18T01:03:06.278Z,99.90
2023-02-18T01:05:33.422Z,99.90
2023-02-18T01:08:00.115Z,99.90
2023-02-18T01:10:26.917Z,99.90
2023-02-18T01:12:53.692Z,99.90
2023-02-18T01:15:20.682Z,99.90
2023-02-18T01:17:47.513Z,99.90
2023-02-18T01:20:15.420Z,99.90
2023-02-18T01:22:42.356Z,99.90
2023-02-18T01:25:10.094Z,99.90
2023-02-18T01:27:37.521Z,99.90
2023-02-18T01:30:06.256Z,99.90
2023-02-18T01:32:33.042Z,99.90
2023-02-18T01:35:04.924Z,99.90
2023-02-18T01:37:31.783Z,99.90
2023-02-18T01:39:58.675Z,99.90
2023-02-18T01:42:28.428Z,99.90
2023-02-18T01:45:34.508Z,99.90
2023-02-18T01:48:11.967Z,99.90
2023-02-18T01:50:48.556Z,99.90
2023-02-18T01:53:18.866Z,99.90
2023-02-18T01:55:47.558Z,99.90
2023-02-18T01:58:14.664Z,99.90
2023-02-18T02:00:41.704Z,99.90
2023-02-18T02:03:08.432Z,99.90
2023-02-18T02:05:35.600Z,99.90
2023-02-18T02:08:04.474Z,99.90
2023-02-18T02:10:53.070Z,99.90
2023-02-18T02:13:44.196Z,99.90
2023-02-18T02:16:34.410Z,99.90
2023-02-18T02:19:19.862Z,99.90
2023-02-18T02:22:25.033Z,99.90
2023-02-18T02:25:31.886Z,99.90
2023-02-18T02:28:32.080Z,99.90
2023-02-18T02:31:36.320Z,99.90
2023-02-18T02:34:06.148Z,99.90
2023-02-18T02:36:56.260Z,99.90
2023-02-18T02:39:35.376Z,99.90
2023-02-18T02:42:13.352Z,99.90
2023-02-18T02:44:57.487Z,99.90
2023-02-18T02:47:43.657Z,99.90
2023-02-18T02:50:20.110Z,99.90
2023-02-18T02:52:51.905Z,99.90
2023-02-18T02:55:20.595Z,99.90
2023-02-18T02:57:53.407Z,99.90
2023-02-18T03:00:41.151Z,99.90
2023-02-18T03:03:19.791Z,99.90
2023-02-18T03:06:20.237Z,99.90
2023-02-18T03:09:10.158Z,99.90
2023-02-18T03:11:52.261Z,99.90
2023-02-18T03:14:36.212Z,99.90
2023-02-18T03:17:20.454Z,99.90
2023-02-18T03:19:54.877Z,99.90
2023-02-18T03:22:26.814Z,99.90
2023-02-18T03:24:55.773Z,99.90
2023-02-18T03:27:43.673Z,99.90
2023-02-18T03:30:20.613Z,1.00
2023-02-18T03:32:53.091Z,1.00
2023-02-18T03:35:20.929Z,1.00
2023-02-18T03:38:00.846Z,1.00
2023-02-18T03:40:28.938Z,1.00
2023-02-18T03:42:59.955Z,1.00
2023-02-18T03:45:28.335Z,1.00
2023-02-18T03:47:55.075Z,1.00
2023-02-18T03:50:24.253Z,1.00
2023-02-18T03:52:51.139Z,1.00
2023-02-18T03:55:17.914Z,1.00
2023-02-18T03:57:44.596Z,1.00
2023-02-18T04:00:11.861Z,1.00
2023-02-18T04:02:41.928Z,1.00
2023-02-18T04:05:09.480Z,1.00
2023-02-18T04:07:36.375Z,1.00
2023-02-18T04:10:04.649Z,1.00
2023-02-18T04:12:31.318Z,1.00
2023-02-18T04:14:57.997Z,1.00
2023-02-18T04:17:24.879Z,1.00
2023-02-18T04:19:51.548Z,1.00
2023-02-18T04:22:18.251Z,1.00
2023-02-18T04:24:44.948Z,1.00
2023-02-18T04:27:11.611Z,1.00
2023-02-18T04:29:38.495Z,1.00
2023-02-18T04:32:05.289Z,1.00
2023-02-18T04:34:32.115Z,1.00
2023-02-18T04:36:58.902Z,9.60
2023-02-18T04:39:25.547Z,30.70
2023-02-18T04:41:52.373Z,50.90
2023-02-18T04:44:19.011Z,69.10
2023-02-18T04:46:45.728Z,90.00
2023-02-18T04:49:12.544Z,97.30
2023-02-18T04:51:39.244Z,99.90
2023-02-18T04:54:05.929Z,99.90
2023-02-18T04:56:32.593Z,99.90
2023-02-18T04:58:59.300Z,99.90
2023-02-18T05:01:26.009Z,99.90
2023-02-18T05:03:52.785Z,99.90
2023-02-18T05:06:19.415Z,99.90
2023-02-18T05:08:46.074Z,99.90
2023-02-18T05:11:12.827Z,99.90
2023-02-18T05:13:39.528Z,99.90
2023-02-18T05:16:06.870Z,99.90
2023-02-18T05:18:33.887Z,99.90
2023-02-18T05:21:00.602Z,99.90
2023-02-18T05:23:27.301Z,99.90
2023-02-18T05:25:55.149Z,99.90
2023-02-18T05:28:21.855Z,99.90
2023-02-18T05:30:48.527Z,1.00
2023-02-18T05:33:15.619Z,1.00
2023-02-18T05:35:42.296Z,1.00
2023-02-18T05:38:09.896Z,1.00
2023-02-18T05:40:36.629Z,1.00
2023-02-18T05:43:03.351Z,1.00
2023-02-18T05:45:30.085Z,1.00
2023-02-18T05:47:56.806Z,1.00
2023-02-18T05:50:23.426Z,1.00
2023-02-18T05:52:50.211Z,1.00
2023-02-18T05:55:16.924Z,1.00
2023-02-18T05:57:43.556Z,1.00
2023-02-18T06:00:10.747Z,1.00
2023-02-18T06:02:37.888Z,1.00
2023-02-18T06:05:05.492Z,1.00
2023-02-18T06:07:32.196Z,1.00
2023-02-18T06:09:58.894Z,1.00
2023-02-18T06:12:25.696Z,12.70
2023-02-18T06:14:52.368Z,49.70
2023-02-18T06:17:19.262Z,91.00
2023-02-18T06:19:46.163Z,99.90
2023-02-18T06:22:12.792Z,99.90
2023-02-18T06:24:39.538Z,99.90
2023-02-18T06:27:06.448Z,99.90
2023-02-18T06:29:33.265Z,99.90
2023-02-18T06:32:00.178Z,99.90
2023-02-18T06:34:27.657Z,99.90
2023-02-18T06:36:54.348Z,99.90
2023-02-18T06:39:20.989Z,99.90
2023-02-18T06:41:47.678Z,99.90
2023-02-18T07:07:44.034Z,99.90
2023-02-18T07:10:37.875Z,99.90
2023-02-18T07:13:04.930Z,99.90
2023-02-18T07:15:31.915Z,99.90
2023-02-18T07:17:58.731Z,99.90
2023-02-18T07:20:26.142Z,99.90
2023-02-18T07:22:53.486Z,99.90
2023-02-18T07:25:23.044Z,99.90
2023-02-18T07:27:50.756Z,99.90
2023-02-18T07:30:18.875Z,99.90
2023-02-18T07:32:45.646Z,99.90
2023-02-18T07:35:15.053Z,99.90
2023-02-18T07:37:46.941Z,99.90
2023-02-18T07:40:15.997Z,99.90
2023-02-18T07:42:42.657Z,99.90
2023-02-18T07:45:10.922Z,99.90
2023-02-18T07:47:37.784Z,99.90
2023-02-18T07:50:05.833Z,87.20
2023-02-18T07:52:32.543Z,42.60
2023-02-18T07:55:00.749Z,1.00
2023-02-18T07:57:27.376Z,1.00
2023-02-18T07:59:54.044Z,1.00
2023-02-18T08:02:23.106Z,1.00
2023-02-18T08:04:50.225Z,1.00
2023-02-18T08:07:18.925Z,1.00
2023-02-18T08:09:45.694Z,1.00
2023-02-18T08:12:12.497Z,1.00
2023-02-18T08:14:39.195Z,1.00
2023-02-18T08:17:05.822Z,1.00
2023-02-18T08:19:32.526Z,1.00
2023-02-18T08:22:02.009Z,1.00
2023-02-18T08:24:28.675Z,99.90
2023-02-18T08:27:00.912Z,99.90
2023-02-18T08:29:28.381Z,99.90
2023-02-18T08:31:57.173Z,99.90
2023-02-18T08:34:23.901Z,99.90
2023-02-18T08:36:50.588Z,99.90
2023-02-18T08:39:17.361Z,99.90
2023-02-18T08:41:44.190Z,99.90
2023-02-18T08:44:10.897Z,1.00
2023-02-18T08:46:37.675Z,1.00
2023-02-18T08:49:05.053Z,1.00
2023-02-18T08:51:31.874Z,1.00
2023-02-18T08:53:58.634Z,1.00
2023-02-18T08:56:27.073Z,1.00
2023-02-18T08:58:53.780Z,1.00
2023-02-18T09:01:20.902Z,1.00
2023-02-18T09:03:48.662Z,1.00
2023-02-18T09:06:15.696Z,1.00
2023-02-18T09:08:42.563Z,1.00
2023-02-18T09:11:11.075Z,1.00
2023-02-18T09:13:38.066Z,1.00
2023-02-18T09:16:12.842Z,1.00
2023-02-18T09:18:39.972Z,99.90
2023-02-18T09:21:09.397Z,99.90
2023-02-18T09:23:36.999Z,99.90
2023-02-18T09:26:09.742Z,99.90
2023-02-18T09:28:37.394Z,99.90
2023-02-18T09:31:06.118Z,99.90
2023-02-18T09:33:36.140Z,99.90
2023-02-18T09:36:03.545Z,99.90
2023-02-18T09:38:30.219Z,99.90
2023-02-18T09:40:59.743Z,99.90
2023-02-18T09:43:32.859Z,99.90
2023-02-18T09:46:02.129Z,99.90
2023-02-18T09:48:33.095Z,99.90
2023-02-18T09:51:00.492Z,99.90
2023-02-18T09:53:27.281Z,99.90
2023-02-18T09:55:56.823Z,99.90
2023-02-18T09:58:34.331Z,99.90
2023-02-18T10:01:16.285Z,99.90
2023-02-18T10:03:44.333Z,99.90
2023-02-18T10:06:25.210Z,99.90
2023-02-18T10:08:54.169Z,99.90
2023-02-18T10:11:30.415Z,99.90
2023-02-18T10:13:58.814Z,99.90
2023-02-18T10:16:25.919Z,99.90
2023-02-18T10:19:06.270Z,99.90
2023-02-18T10:21:36.022Z,99.90
2023-02-18T10:24:28.162Z,99.90
2023-02-18T10:26:55.534Z,99.90
2023-02-18T10:29:23.174Z,99.90
2023-02-18T10:31:57.304Z,99.90
2023-02-18T10:34:42.914Z,99.90
2023-02-18T10:37:31.352Z,99.90
2023-02-18T10:40:11.212Z,99.90
2023-02-18T10:42:52.513Z,99.90
2023-02-18T10:45:36.429Z,99.90
2023-02-18T10:48:41.715Z,99.90
2023-02-18T10:51:21.778Z,99.90
2023-02-18T10:53:51.034Z,99.90
2023-02-18T10:56:41.647Z,99.90
2023-02-18T10:59:21.119Z,99.90
2023-02-18T11:02:12.496Z,99.90
2023-02-18T11:04:41.866Z,99.90
2023-02-18T11:07:14.125Z,99.90
2023-02-18T11:09:47.491Z,99.90
2023-02-18T11:12:30.115Z,99.90
2023-02-18T11:15:17.853Z,99.90
2023-02-18T11:17:50.544Z,99.90
2023-02-18T11:20:26.190Z,87.70
2023-02-18T11:22:56.671Z,88.60
2023-02-18T11:25:33.106Z,98.70
2023-02-18T11:28:23.893Z,99.90
2023-02-18T11:30:55.824Z,99.90
2023-02-18T11:33:34.744Z,99.90
2023-02-18T11:36:25.406Z,99.90
2023-02-18T11:39:04.596Z,99.90
2023-02-18T11:41:47.552Z,99.90
2023-02-18T11:44:52.340Z,99.90
2023-02-18T11:47:26.047Z,99.90
2023-02-18T11:50:16.341Z,99.90
2023-02-18T11:52:48.631Z,99.90
2023-02-18T11:55:22.804Z,99.90
2023-02-18T11:57:54.463Z,99.90
2023-02-18T12:00:41.050Z,99.90
2023-02-18T12:03:34.996Z,99.90
2023-02-18T12:06:06.113Z,99.90
2023-02-18T12:08:38.820Z,99.90
2023-02-18T12:11:12.881Z,99.90
2023-02-18T12:13:53.055Z,99.90
2023-02-18T12:16:35.414Z,99.90
2023-02-18T12:19:27.447Z,99.90
2023-02-18T12:22:01.309Z,99.90
2023-02-18T12:24:39.953Z,99.90
2023-02-18T12:27:15.653Z,99.90
2023-02-18T12:29:57.016Z,99.90
2023-02-18T12:32:42.329Z,99.90
2023-02-18T12:35:42.775Z,99.90
2023-02-18T12:38:27.277Z,99.90
2023-02-18T12:40:53.892Z,99.90
2023-02-18T12:43:39.394Z,99.90
2023-02-18T12:46:06.044Z,99.90
2023-02-18T12:48:51.258Z,99.90
2023-02-18T12:51:38.216Z,99.90
2023-02-18T12:54:17.680Z,99.90
2023-02-18T12:57:11.073Z,99.90
2023-02-18T12:59:59.059Z,99.90
2023-02-18T13:03:04.979Z,99.90
2023-02-18T13:05:53.400Z,99.90
2023-02-18T13:08:33.605Z,99.90
2023-02-18T13:11:42.793Z,99.90
2023-02-18T13:14:30.758Z,99.90
2023-02-18T13:16:59.435Z,99.90
2023-02-18T13:19:41.313Z,99.90
2023-02-18T13:22:12.050Z,99.90
2023-02-18T13:24:41.745Z,99.90
2023-02-18T13:27:20.644Z,99.90
2023-02-18T13:30:10.928Z,99.90
2023-02-18T13:32:50.968Z,99.90
2023-02-18T13:35:27.674Z,99.90
2023-02-18T13:38:16.123Z,99.90
2023-02-18T13:40:43.493Z,99.90
2023-02-18T13:43:18.101Z,99.90
2023-02-18T13:46:02.323Z,99.90
2023-02-18T13:48:29.787Z,99.90
2023-02-18T13:51:04.003Z,99.90
2023-02-18T13:53:38.339Z,99.90
2023-02-18T13:56:21.953Z,1.00
2023-02-18T13:59:08.097Z,1.00
2023-02-18T14:01:46.357Z,99.90
2023-02-18T14:04:35.209Z,99.90
2023-02-18T14:07:33.150Z,99.90
2023-02-18T14:10:01.544Z,99.90
2023-02-18T14:12:41.752Z,99.90
2023-02-18T14:15:20.544Z,99.90
2023-02-18T14:18:09.806Z,99.90
2023-02-18T14:20:39.487Z,99.90
2023-02-18T14:23:32.040Z,99.90
2023-02-18T14:26:13.995Z,99.90
2023-02-18T14:28:49.659Z,99.90
2023-02-18T14:31:28.956Z,99.90
2023-02-18T14:33:59.672Z,99.90
2023-02-18T14:36:29.431Z,99.90
2023-02-18T14:39:02.396Z,99.90
2023-02-18T14:41:33.885Z,99.90
2023-02-18T14:44:28.887Z,99.90
2023-02-18T14:47:10.391Z,99.90
2023-02-18T14:50:10.410Z,99.90
2023-02-18T14:52:42.444Z,99.90
2023-02-18T14:55:20.846Z,99.90
2023-02-18T14:57:53.307Z,99.90
2023-02-18T15:00:22.185Z,99.90
2023-02-18T15:02:51.438Z,99.90
2023-02-18T15:05:20.630Z,99.90
2023-02-18T15:08:03.476Z,99.90
2023-02-18T15:10:48.184Z,99.90
2023-02-18T15:13:23.672Z,99.90
2023-02-18T15:15:54.401Z,99.90
2023-02-18T15:18:40.437Z,99.90
2023-02-18T15:21:14.013Z,99.90
2023-02-18T15:23:41.543Z,78.70
2023-02-18T15:26:14.156Z,46.30
2023-02-18T15:28:55.482Z,19.00
2023-02-18T15:31:27.175Z,1.00
2023-02-18T15:33:53.946Z,1.00
2023-02-18T15:36:20.844Z,1.00
2023-02-18T15:38:47.659Z,1.00
2023-02-18T15:41:16.425Z,1.00
2023-02-18T15:44:05.038Z,1.00
2023-02-18T15:46:32.587Z,1.00
2023-02-18T15:49:00.164Z,1.00
2023-02-18T15:51:31.639Z,1.00
2023-02-18T15:54:01.220Z,1.00
2023-02-18T15:56:37.830Z,1.00
2023-02-18T15:59:30.259Z,1.00
2023-02-18T16:02:24.335Z,1.00
2023-02-18T16:05:04.703Z,1.00
2023-02-18T16:07:37.942Z,1.00
2023-02-18T16:10:21.930Z,1.00
2023-02-18T16:13:00.283Z,1.00
2023-02-18T16:15:30.318Z,1.00
2023-02-18T16:17:58.947Z,1.00
2023-02-18T16:20:30.806Z,1.00
2023-02-18T16:23:02.182Z,1.00
2023-02-18T16:25:44.251Z,1.00
2023-02-18T16:28:22.142Z,1.00
2023-02-18T16:30:48.889Z,1.00
2023-02-18T16:33:15.702Z,1.00
2023-02-18T16:35:50.086Z,1.00
2023-02-18T16:38:20.237Z,1.00
2023-02-18T16:40:47.274Z,1.00
2023-02-18T16:43:16.852Z,1.00
2023-02-18T16:45:50.029Z,1.00
2023-02-18T16:48:24.066Z,1.00
2023-02-18T16:50:51.843Z,1.00
2023-02-18T16:53:19.970Z,1.00
2023-02-18T16:55:48.862Z,1.00
2023-02-18T16:58:15.543Z,1.00
2023-02-18T17:00:43.514Z,1.00
2023-02-18T17:03:11.903Z,1.00
2023-02-18T17:05:41.441Z,1.00
2023-02-18T17:08:25.539Z,1.00
2023-02-18T17:10:54.701Z,1.00
2023-02-18T17:13:24.394Z,1.00
2023-02-18T17:15:53.437Z,1.00
2023-02-18T17:18:20.509Z,1.00
2023-02-18T17:20:48.828Z,99.90
2023-02-18T17:23:17.653Z,99.90
2023-02-18T17:25:45.558Z,99.90
2023-02-18T17:28:12.316Z,99.90
2023-02-18T17:30:40.476Z,99.90
2023-02-18T17:33:08.291Z,99.90
2023-02-18T17:35:34.968Z,99.90
2023-02-18T17:38:01.687Z,99.90
2023-02-18T17:40:29.253Z,99.90
2023-02-18T17:42:56.430Z,99.90
2023-02-18T17:45:29.422Z,99.90
2023-02-18T17:47:57.197Z,99.90
2023-02-18T17:50:24.917Z,99.90
2023-02-18T17:52:52.069Z,99.90
2023-02-18T17:55:25.273Z,99.90
2023-02-18T17:57:53.085Z,99.90
2023-02-18T18:00:33.450Z,99.90
2023-02-18T18:03:01.166Z,99.90
2023-02-18T18:09:21.483Z,99.90
2023-02-18T18:11:48.182Z,99.90
2023-02-18T18:14:15.203Z,99.90
2023-02-18T18:16:42.046Z,1.00
2023-02-18T18:19:08.836Z,1.00
2023-02-18T18:21:36.165Z,1.00
2023-02-18T18:24:03.422Z,1.00
2023-02-18T18:26:30.307Z,1.00
2023-02-18T18:28:57.052Z,1.00
2023-02-18T18:31:23.950Z,1.00
2023-02-18T18:33:53.167Z,1.00
2023-02-18T18:36:21.689Z,1.00
2023-02-18T18:38:48.405Z,1.00
2023-02-18T18:41:18.244Z,1.00
2023-02-18T18:43:45.058Z,1.00
2023-02-18T18:46:12.166Z,1.00
2023-02-18T18:48:39.673Z,1.00
2023-02-18T18:51:06.653Z,99.90
2023-02-18T18:53:35.859Z,99.90
2023-02-18T18:56:06.596Z,99.90
2023-02-18T18:58:33.574Z,99.90
2023-02-18T19:01:02.992Z,99.90
2023-02-18T19:03:30.980Z,99.90
2023-02-18T19:05:58.104Z,99.90
2023-02-18T19:08:25.200Z,99.90
2023-02-18T19:10:56.763Z,99.90
2023-02-18T19:13:32.045Z,99.90
2023-02-18T19:16:01.693Z,99.90
2023-02-18T19:18:29.864Z,99.90
2023-02-18T19:20:56.675Z,99.90
2023-02-18T19:23:23.408Z,99.90
2023-02-18T19:25:50.034Z,99.90
2023-02-18T19:28:17.959Z,99.90
2023-02-18T19:30:46.261Z,99.90
2023-02-18T19:33:14.427Z,99.90
2023-02-18T19:35:42.517Z,99.90
2023-02-18T19:38:10.633Z,99.90
2023-02-18T19:40:38.410Z,99.90
2023-02-18T19:43:06.325Z,99.90
2023-02-18T19:45:34.030Z,99.90
2023-02-18T19:48:01.401Z,1.00
2023-02-18T19:50:31.106Z,1.00
2023-02-18T19:52:58.916Z,1.00
2023-02-18T19:55:25.792Z,1.00
2023-02-18T19:57:53.182Z,1.00
2023-02-18T20:00:22.588Z,1.00
2023-02-18T20:02:50.102Z,1.00
2023-02-18T20:05:17.716Z,1.00
2023-02-18T20:07:46.617Z,1.00
2023-02-18T20:10:16.148Z,1.00
2023-02-18T20:12:43.231Z,1.00
2023-02-18T20:15:10.311Z,1.00
2023-02-18T20:17:39.348Z,1.00
2023-02-18T20:20:07.350Z,1.00
2023-02-18T20:22:34.125Z,1.00
2023-02-18T20:25:00.801Z,1.00
2023-02-18T20:27:27.544Z,1.00
2023-02-18T20:29:54.226Z,1.00
2023-02-18T20:32:20.993Z,1.00
2023-02-18T20:34:47.749Z,1.00
2023-02-18T20:37:14.460Z,1.00
2023-02-18T20:39:41.251Z,1.00
2023-02-18T20:42:15.786Z,1.00
2023-02-18T20:44:46.130Z,1.00
2023-02-18T20:47:13.558Z,1.00
2023-02-18T20:49:41.181Z,1.00
2023-02-18T20:52:09.129Z,1.00
2023-02-18T20:54:36.457Z,1.00
2023-02-18T20:57:03.275Z,1.00
2023-02-18T20:59:30.113Z,1.00
2023-02-18T21:01:57.292Z,1.00
2023-02-18T21:14:27.418Z,1.00
2023-02-18T21:21:56.824Z,1.00
2023-02-18T21:24:31.971Z,1.00
2023-02-18T21:27:01.021Z,1.00
2023-02-18T21:29:28.329Z,1.00
2023-02-18T21:31:55.071Z,1.00
2023-02-18T21:34:22.845Z,1.00
2023-02-18T21:36:49.972Z,1.00
2023-02-18T21:39:16.652Z,16.70
2023-02-18T21:41:43.311Z,98.30
2023-02-18T21:44:10.265Z,99.90
2023-02-18T21:46:37.788Z,99.90
2023-02-18T21:49:12.352Z,99.90
2023-02-18T21:51:57.264Z,99.90
2023-02-18T21:54:32.001Z,99.90
2023-02-18T21:57:00.855Z,99.90
2023-02-18T21:59:29.221Z,99.90
2023-02-18T22:01:57.107Z,99.90
2023-02-18T22:04:25.232Z,99.90
2023-02-18T22:06:53.037Z,99.90
2023-02-18T22:09:20.017Z,99.90
2023-02-18T22:11:46.731Z,99.90
2023-02-18T22:14:14.833Z,99.90
2023-02-18T22:16:41.974Z,99.90
2023-02-18T22:19:10.825Z,99.90
2023-02-18T22:21:37.617Z,99.90
2023-02-18T22:24:05.191Z,99.90
2023-02-18T22:26:32.574Z,99.90
2023-02-18T22:28:59.851Z,99.90
2023-02-18T22:31:29.214Z,99.90
2023-02-18T22:33:57.022Z,99.90
2023-02-18T22:36:25.182Z,99.90
2023-02-18T22:38:52.462Z,99.90
2023-02-18T22:41:22.376Z,1.00
2023-02-18T22:43:52.790Z,1.00
2023-02-18T22:46:19.503Z,1.00
2023-02-18T22:48:46.121Z,1.00
2023-02-18T22:51:23.345Z,1.00
2023-02-18T22:53:50.422Z,1.00
2023-02-18T22:56:18.731Z,1.00
2023-02-18T22:58:47.596Z,1.00
2023-02-18T23:01:24.060Z,1.00
2023-02-18T23:03:52.248Z,1.00
2023-02-18T23:06:20.625Z,1.00
2023-02-18T23:08:48.201Z,1.00
2023-02-18T23:11:20.260Z,1.00
2023-02-18T23:14:09.822Z,1.00
2023-02-18T23:16:57.411Z,1.00
2023-02-18T23:19:25.716Z,1.00
2023-02-18T23:21:52.854Z,1.00
2023-02-18T23:24:19.791Z,1.00
2023-02-18T23:26:46.924Z,1.00
2023-02-18T23:29:14.226Z,1.00
2023-02-18T23:31:41.146Z,1.00
2023-02-18T23:34:12.019Z,1.00
2023-02-18T23:36:38.942Z,1.00
2023-02-18T23:39:08.276Z,1.00
2023-02-18T23:41:36.436Z,1.00
2023-02-18T23:44:05.408Z,1.00
2023-02-18T23:46:32.660Z,1.00
2023-02-18T23:49:00.054Z,1.00
2023-02-18T23:51:29.801Z,1.00
2023-02-18T23:53:57.082Z,1.00
2023-02-18T23:56:28.427Z,1.00
2023-02-18T23:58:58.080Z,1.00
